createdAt,value
2022-09-07T00:01:56.989Z,23.00
2022-09-07T00:04:48.035Z,23.00
2022-09-07T00:07:39.524Z,23.00
2022-09-07T00:10:31.664Z,22.90
2022-09-07T00:13:25.655Z,22.90
2022-09-07T00:16:25.160Z,23.00
2022-09-07T00:19:20.479Z,23.00
2022-09-07T00:22:11.885Z,23.00
2022-09-07T00:25:03.353Z,23.00
2022-09-07T00:27:54.614Z,23.00
2022-09-07T00:30:46.474Z,23.00
2022-09-07T00:33:37.967Z,23.00
2022-09-07T00:36:31.413Z,23.10
2022-09-07T00:39:22.573Z,23.10
2022-09-07T00:42:14.254Z,23.20
2022-09-07T00:45:11.084Z,23.30
2022-09-07T00:48:05.176Z,23.30
2022-09-07T00:50:59.694Z,23.30
2022-09-07T00:53:55.581Z,23.30
2022-09-07T00:56:48.566Z,23.40
2022-09-07T00:59:43.592Z,23.40
2022-09-07T01:02:35.255Z,23.40
2022-09-07T01:05:30.319Z,23.30
2022-09-07T01:08:22.451Z,23.30
2022-09-07T01:11:14.288Z,23.30
2022-09-07T01:14:07.224Z,23.20
2022-09-07T01:17:03.198Z,23.10
2022-09-07T01:20:27.746Z,23.10
2022-09-07T01:24:11.744Z,23.10
2022-09-07T01:27:31.061Z,23.10
2022-09-07T01:30:25.120Z,22.90
2022-09-07T01:33:25.387Z,22.80
2022-09-07T01:36:26.350Z,22.60
2022-09-07T01:39:18.834Z,22.50
2022-09-07T01:42:13.938Z,22.40
2022-09-07T01:45:10.098Z,22.30
2022-09-07T01:48:04.158Z,22.20
2022-09-07T01:50:59.365Z,22.10
2022-09-07T01:53:54.535Z,22.10
2022-09-07T01:56:48.748Z,22.10
2022-09-07T01:59:43.033Z,22.10
2022-09-07T02:02:37.900Z,22.00
2022-09-07T02:05:33.486Z,21.90
2022-09-07T02:08:28.061Z,21.90
2022-09-07T02:11:22.902Z,22.00
2022-09-07T02:14:17.608Z,22.00
2022-09-07T02:17:12.384Z,22.10
2022-09-07T02:20:07.773Z,22.20
2022-09-07T02:23:02.157Z,22.10
2022-09-07T02:25:56.292Z,22.20
2022-09-07T02:28:48.540Z,22.20
2022-09-07T02:31:39.490Z,22.20
2022-09-07T02:34:33.292Z,22.30
2022-09-07T02:37:27.991Z,22.40
2022-09-07T02:40:19.641Z,22.40
2022-09-07T02:43:12.071Z,22.50
2022-09-07T02:46:16.630Z,22.50
2022-09-07T02:49:11.290Z,22.60
2022-09-07T02:52:07.607Z,22.50
2022-09-07T02:55:04.961Z,22.50
2022-09-07T02:58:01.830Z,22.50
2022-09-07T03:00:56.820Z,22.40
2022-09-07T03:03:51.504Z,22.30
2022-09-07T03:06:46.772Z,22.30
2022-09-07T03:09:41.075Z,22.30
2022-09-07T03:12:44.891Z,22.30
2022-09-07T03:15:36.505Z,22.30
2022-09-07T03:18:29.423Z,22.30
2022-09-07T03:21:20.976Z,22.30
2022-09-07T03:24:12.786Z,22.30
2022-09-07T03:27:04.138Z,22.30
2022-09-07T03:29:55.522Z,22.20
2022-09-07T03:32:47.665Z,22.10
2022-09-07T03:35:38.938Z,22.10
2022-09-07T03:38:30.846Z,22.10
2022-09-07T03:41:22.338Z,22.10
2022-09-07T03:44:14.170Z,22.10
2022-09-07T03:47:06.103Z,22.10
2022-09-07T03:49:57.444Z,22.00
2022-09-07T03:52:49.105Z,22.00
2022-09-07T03:55:41.085Z,22.00
2022-09-07T03:58:34.216Z,22.00
2022-09-07T04:01:27.204Z,22.00
2022-09-07T04:04:19.065Z,21.90
2022-09-07T04:07:10.432Z,21.80
2022-09-07T04:10:01.921Z,21.80
2022-09-07T04:12:53.679Z,21.80
2022-09-07T04:15:45.747Z,21.80
2022-09-07T04:18:38.604Z,21.80
2022-09-07T04:21:32.125Z,21.80
2022-09-07T04:24:23.497Z,21.80
2022-09-07T04:27:14.849Z,21.80
2022-09-07T04:30:06.935Z,21.70
2022-09-07T04:32:58.550Z,21.70
2022-09-07T04:38:52.668Z,21.70
2022-09-07T04:41:44.584Z,21.70
2022-09-07T04:44:36.262Z,21.70
2022-09-07T04:47:29.441Z,21.60
2022-09-07T04:50:21.563Z,21.60
2022-09-07T04:53:14.532Z,21.50
2022-09-07T04:56:06.843Z,21.50
2022-09-07T04:58:57.953Z,21.50
2022-09-07T05:01:49.747Z,21.40
2022-09-07T05:04:41.542Z,21.40
2022-09-07T05:07:33.140Z,21.40
2022-09-07T05:10:24.906Z,21.30
2022-09-07T05:13:16.698Z,21.30
2022-09-07T05:16:12.397Z,21.30
2022-09-07T05:19:05.509Z,21.30
2022-09-07T05:21:59.653Z,21.30
2022-09-07T05:24:51.263Z,21.30
2022-09-07T05:27:42.624Z,21.30
2022-09-07T05:36:22.219Z,21.40
2022-09-07T05:39:13.494Z,21.30
2022-09-07T05:42:05.503Z,21.40
2022-09-07T05:44:58.460Z,21.40
2022-09-07T05:47:52.193Z,21.40
2022-09-07T05:50:52.491Z,21.40
2022-09-07T05:53:47.423Z,21.40
2022-09-07T05:56:38.919Z,21.40
2022-09-07T05:59:30.205Z,21.50
2022-09-07T06:02:22.181Z,21.50
2022-09-07T06:05:13.435Z,21.50
2022-09-07T06:08:05.714Z,21.50
2022-09-07T06:10:57.067Z,21.60
2022-09-07T06:13:48.598Z,21.70
2022-09-07T06:16:40.478Z,21.70
2022-09-07T06:19:31.865Z,21.70
2022-09-07T06:22:25.822Z,21.70
2022-09-07T06:27:57.061Z,21.70
2022-09-07T06:33:31.344Z,21.80
2022-09-07T06:36:23.397Z,21.90
2022-09-07T06:39:15.482Z,21.90
2022-09-07T06:44:47.421Z,22.00
2022-09-07T06:47:38.849Z,22.00
2022-09-07T06:50:29.995Z,22.00
2022-09-07T06:53:38.529Z,22.10
2022-09-07T06:56:17.395Z,22.10
2022-09-07T06:59:08.947Z,22.10
2022-09-07T07:02:00.431Z,22.10
2022-09-07T07:04:52.451Z,22.20
2022-09-07T07:07:44.184Z,22.30
2022-09-07T07:10:40.203Z,22.30
2022-09-07T07:13:32.047Z,22.30
2022-09-07T07:16:23.627Z,22.40
2022-09-07T07:19:15.510Z,22.50
2022-09-07T07:27:40.492Z,22.80
2022-09-07T07:30:32.573Z,22.80
2022-09-07T07:33:23.559Z,22.80
2022-09-07T07:36:16.809Z,22.90
2022-09-07T07:39:07.910Z,22.90
2022-09-07T07:42:03.271Z,23.00
2022-09-07T07:47:47.544Z,23.10
2022-09-07T07:50:39.226Z,23.10
2022-09-07T07:53:46.961Z,23.00
2022-09-07T07:56:24.774Z,23.00
2022-09-07T07:59:16.378Z,23.10
2022-09-07T08:02:10.937Z,23.30
2022-09-07T08:05:02.514Z,23.40
2022-09-07T08:07:53.996Z,23.60
2022-09-07T08:10:47.017Z,23.60
2022-09-07T08:13:38.641Z,23.60
2022-09-07T08:16:30.099Z,23.50
2022-09-07T08:19:21.497Z,23.40
2022-09-07T08:22:13.215Z,23.40
2022-09-07T08:25:04.765Z,23.40
2022-09-07T08:27:56.134Z,23.50
2022-09-07T08:30:47.599Z,23.50
2022-09-07T08:33:40.088Z,23.60
2022-09-07T08:36:32.518Z,23.70
2022-09-07T08:39:24.140Z,23.80
2022-09-07T08:42:26.058Z,23.80
2022-09-07T08:45:21.129Z,23.80
2022-09-07T08:48:15.772Z,23.90
2022-09-07T08:51:12.330Z,23.90
2022-09-07T08:54:04.682Z,24.00
2022-09-07T08:59:55.454Z,24.20
2022-09-07T09:03:28.599Z,24.30
2022-09-07T09:05:43.855Z,24.40
2022-09-07T09:08:42.426Z,24.50
2022-09-07T09:11:41.011Z,24.50
2022-09-07T09:14:36.186Z,24.60
2022-09-07T09:17:30.435Z,24.60
2022-09-07T09:20:27.247Z,24.50
2022-09-07T09:23:20.585Z,24.50
2022-09-07T09:26:16.304Z,24.60
2022-09-07T09:29:17.619Z,24.60
2022-09-07T09:32:36.110Z,24.70
2022-09-07T09:35:30.230Z,24.80
2022-09-07T09:38:42.687Z,24.90
2022-09-07T09:41:41.675Z,25.00
2022-09-07T09:44:38.523Z,25.10
2022-09-07T09:47:33.439Z,25.20
2022-09-07T09:53:29.797Z,25.40
2022-09-07T09:56:23.142Z,25.40
2022-09-07T10:05:32.068Z,25.50
2022-09-07T10:08:26.623Z,25.50
2022-09-07T10:11:17.881Z,25.60
2022-09-07T10:14:17.486Z,25.60
2022-09-07T10:17:17.760Z,25.70
2022-09-07T10:20:38.213Z,25.80
2022-09-07T10:23:30.499Z,25.90
2022-09-07T10:26:31.778Z,26.00
2022-09-07T10:29:29.622Z,26.00
2022-09-07T10:32:28.493Z,26.00
2022-09-07T10:35:25.206Z,26.10
2022-09-07T10:38:20.134Z,26.30
2022-09-07T10:41:14.856Z,26.40
2022-09-07T10:44:09.618Z,26.50
2022-09-07T10:47:05.385Z,26.70
2022-09-07T10:55:37.559Z,26.90
2022-09-07T11:01:29.278Z,27.00
2022-09-07T11:04:39.988Z,27.10
2022-09-07T11:07:42.520Z,27.10
2022-09-07T11:10:39.574Z,26.90
2022-09-07T11:13:55.487Z,27.10
2022-09-07T11:19:37.697Z,27.40
2022-09-07T11:22:29.425Z,27.30
2022-09-07T11:25:35.878Z,27.30
2022-09-07T11:28:18.379Z,27.30
2022-09-07T11:31:14.547Z,27.40
2022-09-07T11:34:27.024Z,27.40
2022-09-07T11:37:09.596Z,27.60
2022-09-07T11:40:05.467Z,27.50
2022-09-07T11:43:00.403Z,27.80
2022-09-07T11:45:55.366Z,27.80
2022-09-07T11:48:53.504Z,28.00
2022-09-07T11:51:55.179Z,28.10
2022-09-07T11:54:50.597Z,28.20
2022-09-07T11:57:50.437Z,28.30
2022-09-07T12:03:42.153Z,28.30
2022-09-07T12:07:08.735Z,28.10
2022-09-07T12:10:20.117Z,28.20
2022-09-07T12:13:35.227Z,28.40
2022-09-07T12:16:42.674Z,28.30
2022-09-07T12:19:33.789Z,28.10
2022-09-07T12:25:29.463Z,27.90
2022-09-07T12:28:43.055Z,27.70
2022-09-07T12:37:44.634Z,27.80
2022-09-07T12:40:53.034Z,27.80
2022-09-07T12:44:08.799Z,27.90
2022-09-07T12:47:10.700Z,27.80
2022-09-07T12:50:21.432Z,27.80
2022-09-07T12:53:32.358Z,27.50
2022-09-07T12:56:32.331Z,27.40
2022-09-07T13:15:43.707Z,27.40
2022-09-07T13:18:47.003Z,27.50
2022-09-07T13:21:45.622Z,27.50
2022-09-07T13:24:46.344Z,27.40
2022-09-07T13:27:53.847Z,27.30
2022-09-07T13:30:53.653Z,27.40
2022-09-07T13:33:51.051Z,27.40
2022-09-07T13:36:46.809Z,27.50
2022-09-07T13:39:42.774Z,27.40
2022-09-07T13:42:37.335Z,27.10
2022-09-07T13:45:35.211Z,26.90
2022-09-07T13:48:29.920Z,27.00
2022-09-07T13:51:25.276Z,26.90
2022-09-07T13:57:04.458Z,26.90
2022-09-07T13:59:56.822Z,27.00
2022-09-07T14:02:56.475Z,27.00
2022-09-07T14:05:45.791Z,27.00
2022-09-07T14:08:39.739Z,27.10
2022-09-07T14:11:32.501Z,27.10
2022-09-07T14:14:25.889Z,27.30
2022-09-07T14:17:19.932Z,27.30
2022-09-07T14:20:19.508Z,27.40
2022-09-07T14:23:24.970Z,27.40
2022-09-07T14:26:20.379Z,27.40
2022-09-07T14:29:25.089Z,27.40
2022-09-07T14:32:19.173Z,27.30
2022-09-07T14:35:14.260Z,27.20
2022-09-07T14:38:11.421Z,27.10
2022-09-07T14:41:15.669Z,26.90
2022-09-07T14:44:50.519Z,26.70
2022-09-07T14:47:43.765Z,26.50
2022-09-07T14:50:39.159Z,26.50
2022-09-07T14:53:34.974Z,26.50
2022-09-07T14:56:31.983Z,26.50
2022-09-07T14:59:32.354Z,26.40
2022-09-07T15:05:29.997Z,26.30
2022-09-07T15:08:38.615Z,26.20
2022-09-07T15:11:33.168Z,26.10
2022-09-07T15:14:24.939Z,26.10
2022-09-07T15:20:41.333Z,26.20
2022-09-07T15:23:32.028Z,26.20
2022-09-07T15:32:11.325Z,26.10
2022-09-07T15:35:11.869Z,26.00
2022-09-07T15:38:05.459Z,25.90
2022-09-07T15:41:22.463Z,25.90
2022-09-07T15:44:05.131Z,25.90
2022-09-07T15:49:53.973Z,25.70
2022-09-07T15:52:46.419Z,25.60
2022-09-07T15:55:42.546Z,25.60
2022-09-07T15:58:35.321Z,25.60
2022-09-07T16:04:23.567Z,25.50
2022-09-07T16:07:22.028Z,25.50
2022-09-07T16:10:20.259Z,25.50
2022-09-07T16:13:16.662Z,25.50
2022-09-07T16:16:08.907Z,25.40
2022-09-07T16:19:01.998Z,25.40
2022-09-07T16:21:57.612Z,25.30
2022-09-07T16:24:51.426Z,25.20
2022-09-07T16:27:43.127Z,25.10
2022-09-07T16:30:36.085Z,25.00
2022-09-07T16:33:36.722Z,25.00
2022-09-07T16:36:32.272Z,24.90
2022-09-07T16:39:30.130Z,25.00
2022-09-07T16:42:22.661Z,25.10
2022-09-07T16:51:01.123Z,25.00
2022-09-07T16:53:49.120Z,25.10
2022-09-07T16:56:43.145Z,24.90
2022-09-07T16:59:35.243Z,24.80
2022-09-07T17:02:28.129Z,24.70
2022-09-07T17:05:28.421Z,24.40
2022-09-07T17:08:19.477Z,24.30
2022-09-07T17:11:12.182Z,24.20
2022-09-07T17:14:05.485Z,24.20
2022-09-07T17:16:56.793Z,24.20
2022-09-07T17:19:49.684Z,24.20
2022-09-07T17:22:40.570Z,24.20
2022-09-07T17:25:33.255Z,24.20
2022-09-07T17:28:25.928Z,24.20
2022-09-07T17:34:14.073Z,24.10
2022-09-07T17:37:05.448Z,24.10
2022-09-07T17:39:56.890Z,24.20
2022-09-07T17:45:49.020Z,23.90
2022-09-07T17:48:44.144Z,23.80
2022-09-07T17:51:38.397Z,23.70
2022-09-07T17:54:29.986Z,23.80
2022-09-07T17:57:21.299Z,23.70
2022-09-07T18:00:17.297Z,23.70
2022-09-07T18:03:08.274Z,23.60
2022-09-07T18:06:00.852Z,23.60
2022-09-07T18:08:52.046Z,23.70
2022-09-07T18:11:48.130Z,23.70
2022-09-07T18:14:43.854Z,23.70
2022-09-07T18:17:37.173Z,23.70
2022-09-07T18:23:19.269Z,23.70
2022-09-07T18:26:10.817Z,23.70
2022-09-07T18:29:03.588Z,23.70
2022-09-07T18:31:55.566Z,23.70
2022-09-07T18:34:50.356Z,23.70
2022-09-07T18:37:39.583Z,23.70
2022-09-07T18:40:34.280Z,23.60
2022-09-07T18:43:24.282Z,23.60
2022-09-07T18:46:17.843Z,23.60
2022-09-07T18:49:09.304Z,23.50
2022-09-07T18:54:54.990Z,23.40
2022-09-07T18:57:46.394Z,23.40
2022-09-07T19:00:37.496Z,23.30
2022-09-07T19:03:28.550Z,23.20
2022-09-07T19:06:19.642Z,23.30
2022-09-07T19:09:12.480Z,23.30
2022-09-07T19:12:04.106Z,23.30
2022-09-07T19:14:55.418Z,23.40
2022-09-07T19:17:55.125Z,23.40
2022-09-07T19:21:12.407Z,23.30
2022-09-07T19:24:03.569Z,23.10
2022-09-07T19:27:00.073Z,23.10
2022-09-07T19:29:47.573Z,23.00
2022-09-07T19:32:39.492Z,23.00
2022-09-07T19:35:32.588Z,23.10
2022-09-07T19:38:24.785Z,23.10
2022-09-07T19:41:18.512Z,23.10
2022-09-07T19:44:09.964Z,23.10
2022-09-07T19:47:12.389Z,23.00
2022-09-07T19:50:04.631Z,22.80
2022-09-07T19:52:55.831Z,22.70
2022-09-07T19:55:47.437Z,22.80
2022-09-07T19:58:40.418Z,22.70
2022-09-07T20:04:22.877Z,22.80
2022-09-07T20:07:24.547Z,22.70
2022-09-07T20:10:22.303Z,22.80
2022-09-07T20:13:13.754Z,22.80
2022-09-07T20:18:49.158Z,22.90
2022-09-07T20:21:40.237Z,22.90
2022-09-07T20:24:31.582Z,23.00
2022-09-07T20:27:22.566Z,23.00
2022-09-07T20:30:15.138Z,23.00
2022-09-07T20:33:06.452Z,23.00
2022-09-07T20:36:00.106Z,23.00
2022-09-07T20:38:53.832Z,22.90
2022-09-07T20:41:46.668Z,23.00
2022-09-07T20:44:37.900Z,23.10
2022-09-07T20:50:11.174Z,23.20
2022-09-07T20:53:02.279Z,23.30
2022-09-07T20:56:02.208Z,23.30
2022-09-07T20:58:57.917Z,23.20
2022-09-07T21:01:49.633Z,23.10
2022-09-07T21:04:41.100Z,23.00
2022-09-07T21:07:32.134Z,23.00
2022-09-07T21:10:24.271Z,23.10
2022-09-07T21:15:58.179Z,23.40
2022-09-07T21:18:57.870Z,23.40
2022-09-07T21:21:56.135Z,23.50
2022-09-07T21:24:47.902Z,23.60
2022-09-07T21:27:39.494Z,23.60
2022-09-07T21:30:31.625Z,23.50
2022-09-07T21:33:22.798Z,23.50
2022-09-07T21:36:15.800Z,23.50
2022-09-07T21:39:12.465Z,23.70
2022-09-07T21:42:02.088Z,23.70
2022-09-07T21:44:55.066Z,23.70
2022-09-07T21:47:47.801Z,23.80
2022-09-07T21:50:39.398Z,23.90
2022-09-07T21:53:31.200Z,24.00
2022-09-07T21:56:23.213Z,24.00
2022-09-07T21:59:15.303Z,24.00
2022-09-07T22:02:07.358Z,23.90
2022-09-07T22:05:00.782Z,23.90
2022-09-07T22:07:53.536Z,24.00
2022-09-07T22:10:48.088Z,23.70
2022-09-07T22:13:39.883Z,23.50
2022-09-07T22:16:31.579Z,23.30
2022-09-07T22:19:26.339Z,23.20
2022-09-07T22:22:17.887Z,23.00
2022-09-07T22:25:11.445Z,22.50
2022-09-07T22:28:02.898Z,22.20
2022-09-07T22:30:55.030Z,22.10
2022-09-07T22:33:47.328Z,22.10
2022-09-07T22:36:40.764Z,21.90
2022-09-07T22:39:33.727Z,21.90
2022-09-07T22:42:25.256Z,21.80
2022-09-07T22:45:16.962Z,21.50
2022-09-07T22:48:08.423Z,21.40
2022-09-07T22:51:01.142Z,21.20
2022-09-07T22:53:52.754Z,21.10
2022-09-07T22:56:43.875Z,20.90
2022-09-07T22:59:35.604Z,20.80
2022-09-07T23:02:26.991Z,20.50
2022-09-07T23:05:18.369Z,20.40
2022-09-07T23:08:09.580Z,20.30
2022-09-07T23:11:05.868Z,20.30
2022-09-07T23:13:59.239Z,20.20
2022-09-07T23:16:51.145Z,20.20
2022-09-07T23:19:42.176Z,20.10
2022-09-07T23:22:34.030Z,20.20
2022-09-07T23:25:26.802Z,20.20
2022-09-07T23:28:18.187Z,20.10
2022-09-07T23:31:12.006Z,20.10
2022-09-07T23:34:04.296Z,20.00
2022-09-07T23:36:56.848Z,19.80
2022-09-07T23:39:48.243Z,19.90
2022-09-07T23:42:39.638Z,20.00
2022-09-07T23:45:31.900Z,20.00
2022-09-07T23:48:23.770Z,19.90
2022-09-07T23:51:18.745Z,19.70
2022-09-07T23:54:08.520Z,19.60
2022-09-07T23:57:00.472Z,19.50
2022-09-07T23:59:51.546Z,19.40
